Terminal Aerodrome Forecast
Issued by NWS Shreveport, LA

Home | Current Version | Previous Version | Text Only | Print | Product List | Glossary On
Versions: 1 2 3 4 5 6 7 8 9 10 11 12 13 14 15 16 17 18
801
FTUS44 KSHV 250531
TAFLFK
TAF
KLFK 250531Z 2506/2606 00000KT 5SM BR BKN250
      TEMPO 2508/2512 1/4SM FG VV001
     FM251200 00000KT 1SM BR BKN003
     FM251500 VRB03KT P6SM SCT015 BKN250
     FM251700 18003KT P6SM VCTS BKN050CB
      TEMPO 2519/2521 BKN040CB OVC080
     FM252100 12005KT P6SM SCT050 OVC100
     FM260000 10004KT P6SM BKN080=

USA.gov is the U.S. government's official web portal to all federal, state and local government web resources and services.